Time;durP1;ratioP1;P1;durP2;ratioP2;P2;SDS_P1;SDS_P2;PMS_P1;PMS_P2;Temp;Humidity;BMP_temperature;BMP_pressure;BME280_temperature;BME280_humidity;BME280_pressure;Samples;Min_cycle;Max_cycle;Signal;HPM_P1;HPM_P2
2023/01/11 00:01:00;;;;;;;10.50;4.63;;;10.70;99.90;;;;;;5070546;28;20024;-39
2023/01/11 00:03:26;;;;;;;11.77;4.38;;;10.70;99.90;;;;;;5070966;28;21353;-38
2023/01/11 00:05:55;;;;;;;7.68;4.43;;;10.80;99.90;;;;;;5064376;28;20107;-37
2023/01/11 00:08:23;;;;;;;9.02;4.53;;;10.70;99.90;;;;;;5070507;28;20075;-34
2023/01/11 00:10:49;;;;;;;11.43;4.00;;;10.80;99.90;;;;;;5067858;28;20519;-39
2023/01/11 00:13:15;;;;;;;11.85;4.63;;;10.80;99.90;;;;;;5065209;28;20048;-36
2023/01/11 00:15:41;;;;;;;7.22;4.07;;;10.90;99.90;;;;;;5066281;28;20075;-40
2023/01/11 00:18:08;;;;;;;7.35;3.83;;;10.90;99.90;;;;;;5067632;28;20492;-36
2023/01/11 00:20:34;;;;;;;5.63;4.53;;;10.90;99.90;;;;;;5072540;28;20058;-39
2023/01/11 00:22:59;;;;;;;6.95;4.10;;;10.90;99.90;;;;;;5071487;28;20496;-39
2023/01/11 00:25:25;;;;;;;8.30;3.90;;;10.90;99.90;;;;;;5068462;28;20384;-39
2023/01/11 00:27:54;;;;;;;13.05;4.45;;;10.80;99.90;;;;;;5071980;28;20540;-39
2023/01/11 00:30:19;;;;;;;9.80;3.47;;;10.90;99.90;;;;;;5071043;28;20043;-40
2023/01/11 00:32:45;;;;;;;4.82;3.58;;;11.00;99.90;;;;;;5071078;28;20048;-34
2023/01/11 00:35:11;;;;;;;9.05;3.97;;;11.00;99.90;;;;;;5071392;28;20111;-36
2023/01/11 00:37:37;;;;;;;7.40;3.63;;;11.00;99.90;;;;;;5070156;28;20500;-39
2023/01/11 00:40:04;;;;;;;7.55;3.13;;;11.00;99.90;;;;;;5069056;28;20036;-36
2023/01/11 00:48:03;;;;;;;9.48;3.55;;;11.00;99.90;;;;;;5066334;28;20043;-35
2023/01/11 00:50:31;;;;;;;8.13;4.10;;;11.00;99.90;;;;;;5071291;28;20487;-35
2023/01/11 00:52:57;;;;;;;;;;;11.00;99.90;;;;;;5071066;28;20161;-38
2023/01/11 00:55:24;;;;;;;6.72;3.55;;;11.00;99.90;;;;;;5071691;28;19912;-37
2023/01/11 00:57:50;;;;;;;7.78;3.55;;;11.00;99.90;;;;;;5071516;28;20020;-38
2023/01/11 01:00:17;;;;;;;5.78;3.40;;;11.00;99.90;;;;;;5072763;28;20024;-38
2023/01/11 01:02:42;;;;;;;5.32;3.40;;;11.00;99.90;;;;;;5072808;28;20484;-37
2023/01/11 01:05:08;;;;;;;8.07;3.20;;;11.10;99.90;;;;;;5070873;28;20025;-36
2023/01/11 01:07:35;;;;;;;4.93;3.92;;;11.10;99.90;;;;;;5072400;28;20029;-35
2023/01/11 01:10:01;;;;;;;14.05;3.60;;;11.10;99.90;;;;;;5072214;28;20099;-38
2023/01/11 01:15:10;;;;;;;3.72;3.33;;;11.10;99.90;;;;;;5068027;28;20039;-38
2023/01/11 01:17:36;;;;;;;4.85;3.58;;;11.10;99.90;;;;;;5071481;28;20024;-36
2023/01/11 01:20:02;;;;;;;6.85;4.00;;;11.10;99.90;;;;;;5071183;28;20032;-37
2023/01/11 01:22:28;;;;;;;3.90;3.42;;;11.10;99.90;;;;;;5071360;28;20477;-38
2023/01/11 01:24:53;;;;;;;5.68;3.53;;;11.10;99.90;;;;;;5074303;28;20076;-38
2023/01/11 01:27:19;;;;;;;3.10;2.90;;;11.10;99.90;;;;;;5073237;28;20539;-38
2023/01/11 01:29:45;;;;;;;2.88;2.63;;;11.20;99.90;;;;;;5073415;28;20028;-35
2023/01/11 01:32:11;;;;;;;8.27;3.60;;;11.20;99.90;;;;;;5072489;28;20020;-39
2023/01/11 01:34:36;;;;;;;2.78;2.58;;;11.20;99.90;;;;;;5069028;28;20507;-36
2023/01/11 01:37:06;;;;;;;5.72;3.47;;;11.30;99.90;;;;;;5075319;28;20030;-35
2023/01/11 01:39:32;;;;;;;6.10;3.15;;;11.20;99.90;;;;;;5074088;28;20081;-32
2023/01/11 01:41:58;;;;;;;6.75;3.40;;;11.30;99.90;;;;;;5073914;28;20431;-37
2023/01/11 01:44:57;;;;;;;6.88;2.92;;;11.30;99.90;;;;;;5073561;28;20028;-34
2023/01/11 01:47:30;;;;;;;3.42;2.75;;;11.30;99.90;;;;;;5069889;28;20479;-34
2023/01/11 01:49:57;;;;;;;4.93;2.90;;;11.30;99.90;;;;;;5074600;28;20036;-36
2023/01/11 01:52:42;;;;;;;10.98;3.67;;;11.30;99.90;;;;;;5067990;28;20115;-33
2023/01/11 01:55:14;;;;;;;4.32;2.65;;;11.30;99.90;;;;;;5073532;28;20088;-34
2023/01/11 01:57:41;;;;;;;4.10;3.00;;;11.30;99.90;;;;;;5075693;28;20021;-34
2023/01/11 02:00:08;;;;;;;7.13;2.88;;;11.40;99.90;;;;;;5066627;28;20488;-32
2023/01/11 02:02:36;;;;;;;2.83;2.63;;;11.40;99.90;;;;;;5073158;28;20020;-33
2023/01/11 02:05:01;;;;;;;11.02;2.88;;;11.40;99.90;;;;;;5066860;28;20063;-33
2023/01/11 02:07:34;;;;;;;2.92;2.22;;;11.40;99.90;;;;;;5075077;28;20131;-35
2023/01/11 02:10:09;;;;;;;3.90;2.47;;;11.40;99.90;;;;;;5073491;28;20550;-35
2023/01/11 02:12:43;;;;;;;5.07;2.50;;;11.40;99.90;;;;;;5071873;28;20489;-31
2023/01/11 02:15:10;;;;;;;2.67;2.10;;;11.40;99.90;;;;;;5059527;28;20021;-33
2023/01/11 02:17:36;;;;;;;2.25;2.15;;;11.50;99.90;;;;;;5067798;28;20393;-36
2023/01/11 02:20:30;;;;;;;3.88;2.40;;;11.50;99.90;;;;;;5073909;28;20028;-34
2023/01/11 02:23:17;;;;;;;2.15;1.95;;;11.50;99.90;;;;;;5073912;28;20035;-36
2023/01/11 02:26:09;;;;;;;4.35;2.42;;;11.50;99.90;;;;;;5074044;28;20036;-35
2023/01/11 02:28:49;;;;;;;8.43;2.90;;;11.50;99.90;;;;;;5038105;28;20040;-36
2023/01/11 02:31:29;;;;;;;2.28;2.08;;;11.60;99.90;;;;;;5072627;28;20029;-31
2023/01/11 02:34:23;;;;;;;3.97;2.72;;;11.50;99.90;;;;;;5073408;28;20060;-31
2023/01/11 02:37:07;;;;;;;4.70;2.55;;;11.50;99.90;;;;;;5068831;28;20032;-32
2023/01/11 02:39:56;;;;;;;3.60;3.10;;;11.60;99.90;;;;;;5073278;28;20389;-35
2023/01/11 02:45:21;;;;;;;7.45;2.72;;;11.60;99.90;;;;;;5074362;28;20306;-37
2023/01/11 02:47:52;;;;;;;4.65;2.85;;;11.60;99.90;;;;;;5072279;28;20033;-33
2023/01/11 02:50:28;;;;;;;3.38;1.92;;;11.60;99.90;;;;;;5072576;28;20048;-38
2023/01/11 02:53:17;;;;;;;2.58;2.38;;;11.60;99.90;;;;;;5069151;28;20082;-39
2023/01/11 02:55:47;;;;;;;3.10;2.53;;;11.60;99.90;;;;;;5072169;28;20024;-38
2023/01/11 02:58:16;;;;;;;4.07;2.35;;;11.60;99.90;;;;;;5073072;28;20048;-37
2023/01/11 03:00:43;;;;;;;3.33;2.13;;;11.70;99.90;;;;;;5073674;28;20532;-37
2023/01/11 03:03:15;;;;;;;7.03;2.15;;;11.60;99.90;;;;;;5072840;28;20519;-39
2023/01/11 03:05:49;;;;;;;5.88;2.30;;;11.60;99.90;;;;;;5060926;28;20035;-38
2023/01/11 03:08:33;;;;;;;5.05;2.53;;;11.60;99.90;;;;;;5070941;28;20036;-38
2023/01/11 03:11:04;;;;;;;3.50;2.30;;;11.60;99.90;;;;;;5073181;28;20024;-38
2023/01/11 03:14:15;;;;;;;2.25;2.10;;;11.70;99.90;;;;;;5073575;28;20473;-38
2023/01/11 03:17:04;;;;;;;6.40;2.28;;;11.70;99.90;;;;;;5073056;28;20050;-38
2023/01/11 03:20:03;;;;;;;7.28;2.38;;;11.70;99.90;;;;;;5073772;28;20085;-37
2023/01/11 03:23:01;;;;;;;3.53;2.67;;;11.70;99.90;;;;;;5048973;28;20044;-42
2023/01/11 03:25:44;;;;;;;2.92;2.17;;;11.70;99.90;;;;;;5068008;28;20066;-40
2023/01/11 03:28:34;;;;;;;2.75;2.22;;;11.70;99.90;;;;;;5070474;28;20480;-37
2023/01/11 03:31:10;;;;;;;3.42;1.95;;;11.70;99.90;;;;;;5071798;28;20033;-35
2023/01/11 03:33:45;;;;;;;2.50;2.17;;;11.60;99.90;;;;;;5071801;28;20587;-37
2023/01/11 03:36:19;;;;;;;3.08;2.10;;;11.70;99.90;;;;;;5072818;28;20029;-38
2023/01/11 03:38:47;;;;;;;2.28;1.58;;;11.70;99.90;;;;;;5068645;28;20536;-37
2023/01/11 03:41:18;;;;;;;5.93;1.77;;;11.70;99.90;;;;;;5072993;28;20027;-31
2023/01/11 03:43:48;;;;;;;2.17;1.70;;;11.80;99.90;;;;;;5068039;28;20028;-46
2023/01/11 03:46:18;;;;;;;2.22;1.80;;;11.80;99.90;;;;;;5071876;28;20078;-47
2023/01/11 03:49:11;;;;;;;7.47;2.08;;;11.70;99.90;;;;;;5070972;28;20707;-49
2023/01/11 03:54:29;;;;;;;3.92;2.88;;;11.80;99.90;;;;;;5072564;28;20560;-38
2023/01/11 03:57:18;;;;;;;3.80;2.65;;;11.80;99.90;;;;;;5072662;28;20052;-38
2023/01/11 03:59:44;;;;;;;5.72;2.58;;;11.80;99.90;;;;;;5071794;28;21081;-38
2023/01/11 04:02:32;;;;;;;4.45;2.55;;;11.80;99.90;;;;;;5070537;28;20024;-38
2023/01/11 04:04:58;;;;;;;6.50;2.88;;;11.80;99.90;;;;;;5070882;28;20033;-38
2023/01/11 04:07:23;;;;;;;4.03;2.92;;;11.80;99.90;;;;;;5069796;28;20044;-39
2023/01/11 04:09:49;;;;;;;3.55;2.33;;;11.80;99.90;;;;;;5072040;28;20024;-39
2023/01/11 04:12:15;;;;;;;8.40;2.85;;;11.70;99.90;;;;;;5071677;28;20028;-39
2023/01/11 04:14:40;;;;;;;2.95;2.55;;;11.70;99.90;;;;;;5071566;28;20020;-38
2023/01/11 04:17:06;;;;;;;5.18;3.10;;;11.80;99.90;;;;;;5071807;28;20111;-39
2023/01/11 04:19:31;;;;;;;3.83;2.63;;;11.80;99.90;;;;;;5073112;28;20082;-37
2023/01/11 04:21:57;;;;;;;6.20;3.70;;;11.80;99.90;;;;;;5070208;28;20389;-37
2023/01/11 04:24:23;;;;;;;9.38;2.45;;;11.80;99.90;;;;;;5070550;28;20029;-38
2023/01/11 04:26:48;;;;;;;11.07;3.35;;;11.80;99.90;;;;;;5071398;28;20024;-39
2023/01/11 04:29:14;;;;;;;4.60;2.83;;;11.80;99.90;;;;;;5071110;28;20032;-39
2023/01/11 04:31:39;;;;;;;15.25;3.95;;;11.80;99.90;;;;;;5070265;28;20056;-39
2023/01/11 04:34:05;;;;;;;3.58;2.30;;;11.80;99.90;;;;;;5069649;28;20041;-35
2023/01/11 04:36:34;;;;;;;11.77;2.50;;;11.80;99.90;;;;;;5071910;28;20465;-39
2023/01/11 04:39:00;;;;;;;9.90;2.33;;;11.80;99.90;;;;;;5070005;28;20020;-43
2023/01/11 04:44:10;;;;;;;12.63;2.33;;;11.70;99.90;;;;;;5070142;28;20036;-42
2023/01/11 04:46:35;;;;;;;9.27;3.03;;;11.70;99.90;;;;;;5069431;28;20025;-41
2023/01/11 04:49:01;;;;;;;13.60;2.80;;;11.60;99.90;;;;;;5071913;28;20082;-41
2023/01/11 04:51:27;;;;;;;12.32;2.55;;;11.60;99.90;;;;;;5071402;28;20104;-41
2023/01/11 04:53:52;;;;;;;21.73;2.28;;;11.70;99.90;;;;;;5070185;28;20361;-40
2023/01/11 04:56:19;;;;;;;17.98;3.25;;;11.70;99.90;;;;;;5071598;28;20017;-41
2023/01/11 04:58:45;;;;;;;14.00;2.47;;;11.70;99.90;;;;;;5075258;28;20150;-40
2023/01/11 05:01:15;;;;;;;9.88;2.10;;;11.70;99.90;;;;;;5076827;28;20025;-42
2023/01/11 05:03:42;;;;;;;19.50;3.22;;;11.70;99.90;;;;;;5073579;28;20032;-42
2023/01/11 05:06:08;;;;;;;15.45;4.05;;;11.70;99.90;;;;;;5056725;28;20362;-42
2023/01/11 05:08:33;;;;;;;11.82;3.70;;;11.70;99.90;;;;;;5066983;28;20111;-42
2023/01/11 05:11:02;;;;;;;20.02;2.80;;;11.70;99.90;;;;;;5076658;28;20031;-42
2023/01/11 05:13:40;;;;;;;15.57;2.38;;;11.70;99.90;;;;;;5074925;28;20113;-42
2023/01/11 05:16:07;;;;;;;;;;;11.80;99.90;;;;;;5076212;28;20066;-41
2023/01/11 05:18:32;;;;;;;12.48;1.88;;;11.80;99.90;;;;;;5067206;28;19915;-39
2023/01/11 05:20:58;;;;;;;10.80;2.60;;;11.70;99.90;;;;;;5075699;28;20434;-39
2023/01/11 05:23:23;;;;;;;23.38;2.60;;;11.70;99.90;;;;;;5071370;28;20021;-37
2023/01/11 05:25:49;;;;;;;23.70;2.30;;;11.60;99.90;;;;;;5073640;28;20028;-39
2023/01/11 05:28:15;;;;;;;17.83;2.85;;;11.70;99.90;;;;;;5075267;28;20040;-37
2023/01/11 05:30:43;;;;;;;17.08;1.98;;;11.70;99.90;;;;;;5074286;28;20025;-40
2023/01/11 05:33:09;;;;;;;14.55;1.90;;;11.70;99.90;;;;;;5074003;28;20496;-42
2023/01/11 05:35:35;;;;;;;22.48;3.25;;;11.70;99.90;;;;;;5074338;28;20078;-40
2023/01/11 05:38:00;;;;;;;19.35;3.60;;;11.60;99.90;;;;;;5073641;28;20039;-41
2023/01/11 05:40:26;;;;;;;25.67;3.25;;;11.60;99.90;;;;;;5074226;28;20052;-42
2023/01/11 05:42:52;;;;;;;17.30;2.88;;;11.50;99.90;;;;;;5074789;28;20033;-41
2023/01/11 05:45:31;;;;;;;13.88;2.97;;;11.50;99.90;;;;;;5073768;28;20074;-38
2023/01/11 05:47:57;;;;;;;10.65;2.08;;;11.40;99.90;;;;;;5070672;28;20039;-38
2023/01/11 05:50:23;;;;;;;8.52;1.55;;;11.50;99.90;;;;;;5074893;28;20031;-37
2023/01/11 05:52:49;;;;;;;21.17;2.58;;;11.40;99.90;;;;;;5074205;28;20025;-41
2023/01/11 05:55:15;;;;;;;12.38;1.80;;;11.40;99.90;;;;;;5072987;28;20020;-39
2023/01/11 05:57:59;;;;;;;23.58;2.38;;;11.40;99.90;;;;;;5072249;28;20063;-40
2023/01/11 06:00:25;;;;;;;11.57;2.63;;;11.40;99.90;;;;;;5068441;28;20025;-39
2023/01/11 06:02:51;;;;;;;18.98;2.97;;;11.40;99.90;;;;;;5073469;28;20115;-38
2023/01/11 06:05:16;;;;;;;14.10;2.03;;;11.30;99.90;;;;;;5074465;28;20016;-39
2023/01/11 06:07:42;;;;;;;25.25;3.22;;;11.30;99.90;;;;;;5071408;28;20036;-40
2023/01/11 06:10:10;;;;;;;21.67;3.85;;;11.20;99.90;;;;;;5071679;28;20013;-39
2023/01/11 06:12:36;;;;;;;12.77;3.03;;;11.20;99.90;;;;;;5073168;28;20483;-31
2023/01/11 06:15:02;;;;;;;15.02;2.63;;;11.20;99.90;;;;;;5074383;28;20021;-32
2023/01/11 06:17:27;;;;;;;21.55;3.53;;;11.20;99.90;;;;;;5074039;28;20487;-31
2023/01/11 06:19:53;;;;;;;18.52;3.78;;;11.20;99.90;;;;;;5071180;28;20475;-36
2023/01/11 06:22:18;;;;;;;11.05;2.65;;;11.20;99.90;;;;;;5074459;28;20056;-31
2023/01/11 06:24:44;;;;;;;11.00;2.22;;;11.20;99.90;;;;;;5072401;28;20552;-36
2023/01/11 06:27:10;;;;;;;10.13;2.65;;;11.20;99.90;;;;;;5073547;28;20029;-35
2023/01/11 06:29:35;;;;;;;13.48;3.28;;;11.20;99.90;;;;;;5072234;28;20024;-34
2023/01/11 06:32:01;;;;;;;22.50;4.47;;;11.00;99.90;;;;;;5072587;28;20082;-35
2023/01/11 06:34:26;;;;;;;14.90;5.15;;;11.10;99.90;;;;;;5071966;28;20045;-36
2023/01/11 06:36:52;;;;;;;15.75;4.53;;;11.00;99.90;;;;;;5073297;28;20092;-39
2023/01/11 06:39:18;;;;;;;16.02;2.63;;;11.00;99.90;;;;;;5073057;28;20546;-38
2023/01/11 06:41:43;;;;;;;14.93;3.05;;;10.90;99.90;;;;;;5073860;28;20032;-37
2023/01/11 06:44:09;;;;;;;21.15;3.92;;;10.80;99.90;;;;;;5073706;28;20027;-38
2023/01/11 06:46:35;;;;;;;18.38;2.97;;;10.90;99.90;;;;;;5072388;28;20033;-37
2023/01/11 06:49:03;;;;;;;18.02;2.50;;;10.80;99.90;;;;;;5072957;28;20035;-37
2023/01/11 06:51:29;;;;;;;20.15;3.13;;;10.80;99.90;;;;;;5074071;28;20423;-39
2023/01/11 06:53:54;;;;;;;13.80;2.80;;;10.80;99.90;;;;;;5065917;28;20115;-37
2023/01/11 06:56:20;;;;;;;8.82;2.38;;;10.80;99.90;;;;;;5073389;28;20464;-37
2023/01/11 06:58:46;;;;;;;11.75;2.50;;;10.70;99.90;;;;;;5073567;28;20113;-38
2023/01/11 07:01:12;;;;;;;9.57;1.50;;;10.70;99.90;;;;;;5074918;28;20024;-34
2023/01/11 07:03:40;;;;;;;14.88;2.63;;;10.70;99.90;;;;;;5073304;28;20116;-38
2023/01/11 07:06:06;;;;;;;11.02;2.20;;;10.60;99.90;;;;;;5073413;28;20040;-37
2023/01/11 07:08:31;;;;;;;16.52;1.45;;;10.60;99.90;;;;;;5073195;28;20396;-37
2023/01/11 07:10:57;;;;;;;16.98;2.20;;;10.50;99.90;;;;;;5074531;28;20074;-38
2023/01/11 07:13:23;;;;;;;20.55;3.35;;;10.50;99.90;;;;;;5074056;28;20099;-37
2023/01/11 07:15:50;;;;;;;11.07;1.50;;;10.50;99.90;;;;;;5074129;28;20046;-33
2023/01/11 07:18:17;;;;;;;15.07;1.50;;;10.50;99.90;;;;;;5073081;28;20534;-40
2023/01/11 07:20:43;;;;;;;11.20;1.85;;;10.50;99.90;;;;;;5072357;28;20028;-38
2023/01/11 07:23:10;;;;;;;5.75;1.52;;;10.50;99.90;;;;;;5072799;28;20438;-39
2023/01/11 07:25:35;;;;;;;5.43;1.75;;;10.50;99.90;;;;;;5073557;28;20047;-38
2023/01/11 07:28:03;;;;;;;11.77;1.63;;;10.40;99.90;;;;;;5073102;28;20119;-38
2023/01/11 07:30:32;;;;;;;4.47;1.42;;;10.50;99.90;;;;;;5070521;28;20021;-40
2023/01/11 07:32:59;;;;;;;10.18;1.50;;;10.50;99.90;;;;;;5073873;28;20488;-38
2023/01/11 07:35:25;;;;;;;14.25;1.95;;;10.40;99.90;;;;;;5071606;28;20028;-40
2023/01/11 07:37:51;;;;;;;19.63;2.83;;;10.40;99.90;;;;;;5072962;28;20025;-41
2023/01/11 07:40:17;;;;;;;9.63;1.80;;;10.40;99.90;;;;;;5073726;28;20025;-39
2023/01/11 07:45:35;;;;;;;12.32;2.28;;;10.40;99.90;;;;;;5068933;28;20595;-40
2023/01/11 07:48:03;;;;;;;11.30;2.20;;;10.30;99.90;;;;;;5071732;28;20051;-45
2023/01/11 07:50:29;;;;;;;14.57;2.67;;;10.30;99.90;;;;;;5070637;28;20127;-38
2023/01/11 07:52:54;;;;;;;11.00;2.05;;;10.30;99.90;;;;;;5068571;28;20384;-38
2023/01/11 07:55:20;;;;;;;11.95;2.53;;;10.30;99.90;;;;;;5064956;28;20083;-41
2023/01/11 07:57:46;;;;;;;14.82;3.03;;;10.30;99.90;;;;;;5072814;28;20510;-40
2023/01/11 08:00:12;;;;;;;24.02;2.05;;;10.30;99.90;;;;;;5067109;28;20073;-41
2023/01/11 08:02:38;;;;;;;21.17;2.75;;;10.20;99.90;;;;;;5070361;28;20112;-40
2023/01/11 08:05:04;;;;;;;19.58;2.53;;;10.20;99.90;;;;;;5071537;28;20496;-36
2023/01/11 08:07:29;;;;;;;18.05;2.45;;;10.20;99.90;;;;;;5071991;28;20024;-39
2023/01/11 08:09:55;;;;;;;17.48;1.98;;;10.20;99.90;;;;;;5075821;28;20386;-39
2023/01/11 08:15:05;;;;;;;15.23;3.30;;;10.10;99.90;;;;;;5071120;28;20089;-41
2023/01/11 08:17:32;;;;;;;14.55;2.50;;;10.00;99.90;;;;;;5071860;28;20032;-41
2023/01/11 08:19:58;;;;;;;19.23;2.78;;;10.00;99.90;;;;;;5070991;28;20031;-41
2023/01/11 08:22:24;;;;;;;17.85;3.13;;;9.90;99.90;;;;;;5068750;28;20028;-40
2023/01/11 08:24:49;;;;;;;17.90;2.58;;;9.90;99.90;;;;;;5068865;28;20029;-39
2023/01/11 08:27:15;;;;;;;12.15;3.15;;;9.80;99.90;;;;;;5069611;28;20032;-41
2023/01/11 08:29:43;;;;;;;7.05;1.75;;;9.80;99.90;;;;;;5069682;28;20159;-42
2023/01/11 08:32:09;;;;;;;12.60;3.22;;;9.80;99.90;;;;;;5069337;28;20021;-43
2023/01/11 08:34:35;;;;;;;17.90;2.00;;;9.80;99.90;;;;;;5070123;28;20420;-43
2023/01/11 08:37:01;;;;;;;9.55;1.98;;;9.80;99.90;;;;;;5068313;28;20020;-41
2023/01/11 08:39:29;;;;;;;19.80;3.00;;;9.70;99.90;;;;;;5072357;28;20021;-42
2023/01/11 08:41:56;;;;;;;6.93;1.98;;;9.70;99.90;;;;;;5068699;28;20032;-42
2023/01/11 08:44:22;;;;;;;15.80;1.75;;;9.70;99.90;;;;;;5060869;28;20067;-40
2023/01/11 08:46:47;;;;;;;22.27;2.38;;;9.70;99.90;;;;;;5071494;28;20063;-40
2023/01/11 08:49:13;;;;;;;9.77;1.85;;;9.70;99.90;;;;;;5071796;28;20090;-43
2023/01/11 08:51:42;;;;;;;12.52;2.50;;;9.70;99.90;;;;;;5070042;28;20082;-40
2023/01/11 08:54:13;;;;;;;15.05;2.85;;;9.60;99.90;;;;;;5070359;28;20029;-41
2023/01/11 08:56:39;;;;;;;8.10;2.13;;;9.60;99.90;;;;;;5070381;28;20532;-44
2023/01/11 08:59:05;;;;;;;12.43;1.42;;;9.60;99.90;;;;;;5066761;28;20029;-40
2023/01/11 09:01:35;;;;;;;12.13;1.65;;;9.60;99.90;;;;;;5066193;28;20033;-43
2023/01/11 09:04:00;;;;;;;13.90;2.38;;;9.60;99.90;;;;;;5069753;28;20017;-40
2023/01/11 09:06:26;;;;;;;11.60;2.05;;;9.60;99.90;;;;;;5071723;28;20025;-42
2023/01/11 09:08:52;;;;;;;9.02;1.33;;;9.60;99.90;;;;;;5068513;28;20028;-41
2023/01/11 09:14:02;;;;;;;9.68;2.10;;;9.50;99.90;;;;;;5069366;28;20023;-40
2023/01/11 09:16:28;;;;;;;23.88;3.85;;;9.60;99.90;;;;;;5072535;28;20052;-40
2023/01/11 09:18:54;;;;;;;8.10;1.52;;;9.60;99.90;;;;;;5071783;28;20384;-40
2023/01/11 09:21:21;;;;;;;16.92;2.35;;;9.60;99.90;;;;;;5064891;28;20392;-40
2023/01/11 09:23:46;;;;;;;8.57;1.85;;;9.70;99.90;;;;;;5071444;28;20024;-40
2023/01/11 09:26:13;;;;;;;12.52;2.03;;;9.70;99.90;;;;;;5065185;28;20043;-41
2023/01/11 09:28:39;;;;;;;12.32;2.85;;;9.80;99.90;;;;;;5068774;28;20550;-41
2023/01/11 09:31:05;;;;;;;19.13;2.17;;;9.80;99.90;;;;;;5068629;28;20029;-41
2023/01/11 09:33:31;;;;;;;19.65;2.95;;;9.90;99.90;;;;;;5068930;28;20090;-38
2023/01/11 09:36:01;;;;;;;15.35;2.25;;;9.90;99.90;;;;;;5069304;28;20502;-39
2023/01/11 09:38:29;;;;;;;17.80;3.28;;;9.90;99.90;;;;;;5065314;28;20408;-41
2023/01/11 09:41:04;;;;;;;19.75;1.75;;;9.90;99.90;;;;;;5063699;28;20544;-41
2023/01/11 09:43:33;;;;;;;15.70;2.10;;;10.00;99.90;;;;;;5066263;28;20496;-41
2023/01/11 09:46:04;;;;;;;14.05;2.35;;;10.00;99.90;;;;;;5070468;28;20028;-42
2023/01/11 09:48:52;;;;;;;16.15;2.03;;;10.10;99.90;;;;;;5072701;28;20021;-37
2023/01/11 09:51:19;;;;;;;15.15;3.05;;;10.30;99.90;;;;;;5064912;28;20020;-40
2023/01/11 09:53:49;;;;;;;22.42;3.15;;;10.40;99.90;;;;;;5067895;28;20465;-38
2023/01/11 09:56:23;;;;;;;13.45;3.78;;;10.40;99.90;;;;;;5070103;28;20021;-35
2023/01/11 09:58:58;;;;;;;18.80;2.50;;;10.40;99.90;;;;;;5073989;28;20028;-38
2023/01/11 10:01:38;;;;;;;18.13;3.03;;;10.50;99.90;;;;;;5074014;28;20113;-37
2023/01/11 10:04:33;;;;;;;23.95;2.85;;;10.50;99.90;;;;;;5074715;28;20056;-38
2023/01/11 10:07:23;;;;;;;17.63;2.25;;;10.50;99.90;;;;;;5073789;28;20064;-38
2023/01/11 10:10:14;;;;;;;19.17;2.55;;;10.50;99.90;;;;;;5070039;28;20024;-37
2023/01/11 10:13:12;;;;;;;9.60;1.67;;;10.50;99.90;;;;;;5075043;28;20033;-39
2023/01/11 10:16:10;;;;;;;13.07;3.47;;;10.50;99.90;;;;;;5070198;28;20020;-39
2023/01/11 10:18:50;;;;;;;11.73;2.10;;;10.50;99.90;;;;;;5065145;28;20355;-37
2023/01/11 10:21:21;;;;;;;8.50;1.88;;;10.50;99.90;;;;;;5070152;28;20028;-37
2023/01/11 10:24:00;;;;;;;15.23;1.42;;;10.50;99.90;;;;;;5065908;28;20021;-37
2023/01/11 10:26:31;;;;;;;15.50;2.63;;;10.50;99.90;;;;;;5069538;28;20504;-36
2023/01/11 10:42:53;;;;;;;27.48;1.92;;;10.80;99.90;;;;;;5071146;28;20123;-37
2023/01/11 10:45:26;;;;;;;11.00;1.50;;;10.70;99.90;;;;;;5072972;28;20480;-49
2023/01/11 10:48:23;;;;;;;15.98;2.63;;;10.70;99.90;;;;;;5073731;28;20036;-41
2023/01/11 10:51:10;;;;;;;9.75;1.40;;;10.70;99.90;;;;;;5069770;28;20033;-40
2023/01/11 10:53:42;;;;;;;13.15;2.20;;;10.70;99.90;;;;;;5072525;28;20020;-40
2023/01/11 10:56:26;;;;;;;15.60;2.03;;;10.80;99.90;;;;;;5069817;28;20078;-42
2023/01/11 10:59:25;;;;;;;12.98;2.17;;;10.90;99.90;;;;;;5071460;28;20032;-44
2023/01/11 11:02:28;;;;;;;11.38;1.45;;;10.90;99.90;;;;;;5070302;28;20031;-41
2023/01/11 11:05:24;;;;;;;15.68;2.85;;;11.00;99.90;;;;;;5071065;28;20039;-41
2023/01/11 11:10:55;;;;;;;11.10;2.00;;;11.20;99.90;;;;;;5070252;28;20503;-40
2023/01/11 11:13:26;;;;;;;16.25;1.55;;;11.30;99.90;;;;;;5071553;28;20059;-44
2023/01/11 11:16:20;;;;;;;15.65;2.10;;;11.40;99.90;;;;;;5066855;28;20024;-43
2023/01/11 11:18:47;;;;;;;10.50;2.10;;;11.40;99.90;;;;;;5057526;28;20048;-38
2023/01/11 11:21:27;;;;;;;5.15;1.90;;;11.50;99.90;;;;;;5073027;28;20029;-42
2023/01/11 11:24:26;;;;;;;17.75;2.08;;;11.50;99.90;;;;;;5072810;28;20024;-40
2023/01/11 11:27:07;;;;;;;17.85;2.00;;;11.50;99.90;;;;;;5064696;28;20154;-40
2023/01/11 11:29:40;;;;;;;7.15;1.83;;;11.50;99.90;;;;;;5069569;28;20476;-45
2023/01/11 11:32:24;;;;;;;14.43;2.40;;;11.50;99.90;;;;;;5073872;28;20013;-40
2023/01/11 11:34:51;;;;;;;23.63;3.58;;;11.50;99.90;;;;;;5059120;28;20124;-44
2023/01/11 11:37:23;;;;;;;20.73;2.03;;;11.50;99.90;;;;;;5072324;28;20028;-40
2023/01/11 11:39:50;;;;;;;14.57;1.55;;;11.50;99.90;;;;;;5071960;28;20032;-41
2023/01/11 11:42:19;;;;;;;9.60;1.38;;;11.50;99.90;;;;;;5073471;28;20374;-41
2023/01/11 11:45:04;;;;;;;14.30;2.03;;;11.50;99.90;;;;;;5073653;28;20021;-42
2023/01/11 11:47:29;;;;;;;12.00;1.45;;;11.60;99.90;;;;;;5072598;28;20111;-41
2023/01/11 11:50:23;;;;;;;15.85;1.70;;;11.60;99.90;;;;;;5071577;28;20108;-40
2023/01/11 11:52:52;;;;;;;12.48;1.52;;;11.60;99.90;;;;;;5073534;28;20026;-42
2023/01/11 11:55:30;;;;;;;9.85;1.85;;;11.60;99.90;;;;;;5071749;28;20024;-42
2023/01/11 11:57:59;;;;;;;15.63;2.58;;;11.60;99.90;;;;;;5073386;28;20034;-43
2023/01/11 12:00:27;;;;;;;9.77;1.60;;;11.60;99.90;;;;;;5071767;28;20028;-39
2023/01/11 12:03:38;;;;;;;15.05;2.10;;;11.60;99.90;;;;;;5071084;28;20037;-42
2023/01/11 12:06:06;;;;;;;14.88;2.05;;;11.60;99.90;;;;;;5028537;28;20036;-39
2023/01/11 12:08:32;;;;;;;;;;;11.60;99.90;;;;;;5071932;28;20036;-38
2023/01/11 12:11:02;;;;;;;14.60;2.33;;;11.60;99.90;;;;;;5070398;28;19913;-38
2023/01/11 12:13:31;;;;;;;13.25;1.50;;;11.60;99.90;;;;;;5073275;28;20457;-36
2023/01/11 12:16:01;;;;;;;12.82;1.90;;;11.60;99.90;;;;;;5073356;28;20380;-38
2023/01/11 12:18:42;;;;;;;16.42;3.22;;;11.70;99.90;;;;;;5071220;28;20025;-37
2023/01/11 12:21:16;;;;;;;14.25;2.35;;;11.70;99.90;;;;;;5071341;28;20464;-39
2023/01/11 12:23:41;;;;;;;25.42;3.10;;;11.50;99.90;;;;;;5070284;28;20028;-35
2023/01/11 12:26:13;;;;;;;14.93;2.72;;;11.50;99.90;;;;;;5071483;28;20429;-36
2023/01/11 12:29:08;;;;;;;20.27;2.67;;;11.40;99.90;;;;;;5072834;28;20025;-39
2023/01/11 12:31:58;;;;;;;14.45;2.20;;;11.30;99.90;;;;;;5015607;28;20066;-34
2023/01/11 12:34:34;;;;;;;16.70;2.15;;;11.30;99.90;;;;;;5070638;28;20044;-36
2023/01/11 12:37:19;;;;;;;13.20;1.67;;;11.10;99.90;;;;;;5072902;28;20060;-38
2023/01/11 12:39:51;;;;;;;10.52;2.65;;;11.00;99.90;;;;;;5072197;28;20097;-37
2023/01/11 12:42:47;;;;;;;21.23;2.50;;;11.00;99.90;;;;;;5071011;28;20063;-42
2023/01/11 12:45:18;;;;;;;11.05;2.28;;;11.00;99.90;;;;;;5072683;28;20043;-43
2023/01/11 12:47:53;;;;;;;9.13;1.65;;;10.90;99.90;;;;;;5070605;28;20031;-46
2023/01/11 12:50:19;;;;;;;13.15;1.80;;;10.90;99.90;;;;;;5067699;28;20029;-47
2023/01/11 12:53:29;;;;;;;19.27;2.42;;;10.90;99.90;;;;;;5070521;28;20027;-42
2023/01/11 12:56:16;;;;;;;18.35;3.00;;;10.80;99.90;;;;;;5071243;28;20532;-41
2023/01/11 12:58:54;;;;;;;24.15;2.70;;;10.90;99.90;;;;;;5072602;28;20089;-44
2023/01/11 13:01:52;;;;;;;10.30;2.90;;;11.00;99.90;;;;;;5071601;28;20488;-45
2023/01/11 13:04:24;;;;;;;;;;;11.10;99.90;;;;;;5070942;28;20422;-45
2023/01/11 13:06:56;;;;;;;17.73;1.88;;;11.20;99.90;;;;;;5071664;28;19909;-44
2023/01/11 13:09:40;;;;;;;11.95;2.10;;;11.10;99.90;;;;;;5071243;28;20519;-45
2023/01/11 13:12:28;;;;;;;12.32;1.40;;;11.00;99.90;;;;;;5055797;28;20392;-47
2023/01/11 13:15:17;;;;;;;16.83;1.98;;;11.00;99.90;;;;;;5071738;28;20103;-43
2023/01/11 13:18:09;;;;;;;14.27;2.00;;;10.90;99.90;;;;;;5070598;28;20029;-47
2023/01/11 13:20:49;;;;;;;16.17;1.73;;;10.90;99.90;;;;;;5074152;28;20035;-44
2023/01/11 13:23:46;;;;;;;9.73;1.77;;;10.90;99.90;;;;;;5076171;28;20384;-53
2023/01/11 13:26:16;;;;;;;12.00;1.40;;;10.90;99.90;;;;;;5066071;28;20490;-44
2023/01/11 13:28:47;;;;;;;11.60;2.00;;;10.90;99.90;;;;;;5085648;28;20036;-40
2023/01/11 13:31:14;;;;;;;14.60;2.05;;;10.90;99.90;;;;;;5072992;28;20487;-36
2023/01/11 13:33:46;;;;;;;9.40;1.38;;;11.00;99.90;;;;;;5075945;28;20503;-39
2023/01/11 13:36:20;;;;;;;19.42;1.92;;;10.90;99.90;;;;;;5075950;28;20102;-34
2023/01/11 13:39:09;;;;;;;10.43;2.65;;;11.00;99.90;;;;;;5074027;28;20060;-34
2023/01/11 13:41:42;;;;;;;13.02;1.80;;;11.00;99.90;;;;;;5076004;28;20082;-40
2023/01/11 13:44:19;;;;;;;13.07;2.05;;;11.00;99.90;;;;;;5074053;28;20488;-38
2023/01/11 13:46:50;;;;;;;15.60;1.60;;;10.90;99.90;;;;;;5072683;28;20472;-38
2023/01/11 13:49:48;;;;;;;8.63;1.67;;;10.80;99.90;;;;;;5075143;28;20024;-35